sensor_id;sensor_type;location;lat;lon;timestamp;pressure;altitude;pressure_sealevel;temperature;humidity
19797;BME280;10058;57.654;12.044;2023-03-04T00:01:04;100552.09;;;4.44;100.00
19797;BME280;10058;57.654;12.044;2023-03-04T00:03:30;100555.31;;;4.38;100.00
19797;BME280;10058;57.654;12.044;2023-03-04T00:05:55;100557.09;;;4.22;100.00
19797;BME280;10058;57.654;12.044;2023-03-04T00:08:20;100565.47;;;4.14;100.00
19797;BME280;10058;57.654;12.044;2023-03-04T00:10:45;100564.50;;;4.12;100.00
19797;BME280;10058;57.654;12.044;2023-03-04T00:13:11;100566.06;;;4.09;100.00
19797;BME280;10058;57.654;12.044;2023-03-04T00:15:36;100568.91;;;4.13;100.00
19797;BME280;10058;57.654;12.044;2023-03-04T00:18:01;100564.13;;;4.23;100.00
19797;BME280;10058;57.654;12.044;2023-03-04T00:20:27;100565.75;;;4.20;100.00
19797;BME280;10058;57.654;12.044;2023-03-04T00:22:52;100570.84;;;4.17;100.00
19797;BME280;10058;57.654;12.044;2023-03-04T00:25:17;100582.13;;;4.16;100.00
19797;BME280;10058;57.654;12.044;2023-03-04T00:27:43;100583.41;;;4.07;100.00
19797;BME280;10058;57.654;12.044;2023-03-04T00:30:09;100576.75;;;3.96;100.00
19797;BME280;10058;57.654;12.044;2023-03-04T00:32:34;100584.25;;;3.90;100.00
19797;BME280;10058;57.654;12.044;2023-03-04T00:34:59;100588.25;;;3.83;100.00
19797;BME280;10058;57.654;12.044;2023-03-04T00:37:25;100593.81;;;3.89;100.00
19797;BME280;10058;57.654;12.044;2023-03-04T00:39:50;100593.25;;;3.95;100.00
19797;BME280;10058;57.654;12.044;2023-03-04T00:42:15;100584.09;;;3.87;100.00
19797;BME280;10058;57.654;12.044;2023-03-04T00:44:41;100600.44;;;3.82;100.00
19797;BME280;10058;57.654;12.044;2023-03-04T00:47:06;100600.06;;;3.75;100.00
19797;BME280;10058;57.654;12.044;2023-03-04T00:49:31;100603.50;;;3.74;100.00
19797;BME280;10058;57.654;12.044;2023-03-04T00:51:57;100601.84;;;3.76;100.00
19797;BME280;10058;57.654;12.044;2023-03-04T00:54:22;100603.00;;;3.65;100.00
19797;BME280;10058;57.654;12.044;2023-03-04T00:56:47;100598.13;;;3.55;100.00
19797;BME280;10058;57.654;12.044;2023-03-04T00:59:12;100604.59;;;3.45;100.00
19797;BME280;10058;57.654;12.044;2023-03-04T01:01:38;100610.38;;;3.39;100.00
19797;BME280;10058;57.654;12.044;2023-03-04T01:04:03;100603.19;;;3.35;100.00
19797;BME280;10058;57.654;12.044;2023-03-04T01:06:28;100620.47;;;3.33;100.00
19797;BME280;10058;57.654;12.044;2023-03-04T01:08:54;100614.78;;;3.40;100.00
19797;BME280;10058;57.654;12.044;2023-03-04T01:11:19;100613.97;;;3.41;100.00
19797;BME280;10058;57.654;12.044;2023-03-04T01:13:44;100629.66;;;3.41;100.00
19797;BME280;10058;57.654;12.044;2023-03-04T01:16:10;100621.47;;;3.52;100.00
19797;BME280;10058;57.654;12.044;2023-03-04T01:18:36;100629.94;;;3.47;100.00
19797;BME280;10058;57.654;12.044;2023-03-04T01:21:02;100633.25;;;3.43;100.00
19797;BME280;10058;57.654;12.044;2023-03-04T01:23:27;100615.34;;;3.51;100.00
19797;BME280;10058;57.654;12.044;2023-03-04T01:25:52;100630.13;;;3.67;100.00
19797;BME280;10058;57.654;12.044;2023-03-04T01:28:18;100629.53;;;3.89;100.00
19797;BME280;10058;57.654;12.044;2023-03-04T01:30:43;100633.84;;;3.88;100.00
19797;BME280;10058;57.654;12.044;2023-03-04T01:33:08;100639.88;;;4.03;100.00
19797;BME280;10058;57.654;12.044;2023-03-04T01:35:34;100641.03;;;3.92;100.00
19797;BME280;10058;57.654;12.044;2023-03-04T01:37:59;100636.66;;;3.75;100.00
19797;BME280;10058;57.654;12.044;2023-03-04T01:40:24;100644.09;;;3.67;100.00
19797;BME280;10058;57.654;12.044;2023-03-04T01:42:49;100636.47;;;3.88;100.00
19797;BME280;10058;57.654;12.044;2023-03-04T01:45:17;100644.63;;;3.94;100.00
19797;BME280;10058;57.654;12.044;2023-03-04T01:47:46;100645.03;;;3.85;100.00
19797;BME280;10058;57.654;12.044;2023-03-04T01:50:34;100658.19;;;3.87;100.00
19797;BME280;10058;57.654;12.044;2023-03-04T01:53:01;100653.88;;;3.71;100.00
19797;BME280;10058;57.654;12.044;2023-03-04T01:55:28;100656.22;;;3.83;100.00
19797;BME280;10058;57.654;12.044;2023-03-04T01:57:53;100657.88;;;3.65;100.00
19797;BME280;10058;57.654;12.044;2023-03-04T02:00:34;100659.13;;;3.55;100.00
19797;BME280;10058;57.654;12.044;2023-03-04T02:03:15;100660.47;;;3.32;100.00
19797;BME280;10058;57.654;12.044;2023-03-04T02:05:47;100664.41;;;3.40;100.00
19797;BME280;10058;57.654;12.044;2023-03-04T02:08:13;100663.78;;;3.44;100.00
19797;BME280;10058;57.654;12.044;2023-03-04T02:10:41;100663.41;;;3.22;100.00
19797;BME280;10058;57.654;12.044;2023-03-04T02:13:06;100661.06;;;3.27;100.00
19797;BME280;10058;57.654;12.044;2023-03-04T02:15:32;100668.28;;;3.16;100.00
19797;BME280;10058;57.654;12.044;2023-03-04T02:17:57;100655.06;;;3.13;100.00
19797;BME280;10058;57.654;12.044;2023-03-04T02:23:08;100671.94;;;3.03;100.00
19797;BME280;10058;57.654;12.044;2023-03-04T02:25:43;100679.69;;;3.02;100.00
19797;BME280;10058;57.654;12.044;2023-03-04T02:28:10;100672.03;;;3.05;100.00
19797;BME280;10058;57.654;12.044;2023-03-04T02:30:35;100662.06;;;2.98;100.00
19797;BME280;10058;57.654;12.044;2023-03-04T02:33:01;100675.47;;;3.04;100.00
19797;BME280;10058;57.654;12.044;2023-03-04T02:35:26;100679.00;;;2.90;100.00
19797;BME280;10058;57.654;12.044;2023-03-04T02:37:51;100676.53;;;2.76;100.00
19797;BME280;10058;57.654;12.044;2023-03-04T02:40:30;100672.34;;;2.80;100.00
19797;BME280;10058;57.654;12.044;2023-03-04T02:42:58;100678.31;;;2.77;100.00
19797;BME280;10058;57.654;12.044;2023-03-04T02:48:07;100682.38;;;2.72;100.00
19797;BME280;10058;57.654;12.044;2023-03-04T02:50:39;100684.25;;;2.90;100.00
19797;BME280;10058;57.654;12.044;2023-03-04T02:53:06;100682.88;;;2.82;100.00
19797;BME280;10058;57.654;12.044;2023-03-04T02:55:31;100678.03;;;2.88;100.00
19797;BME280;10058;57.654;12.044;2023-03-04T02:57:57;100685.44;;;3.11;100.00
19797;BME280;10058;57.654;12.044;2023-03-04T03:00:22;100676.28;;;3.03;100.00
19797;BME280;10058;57.654;12.044;2023-03-04T03:02:48;100686.94;;;3.22;100.00
19797;BME280;10058;57.654;12.044;2023-03-04T03:05:14;100683.78;;;3.13;100.00
19797;BME280;10058;57.654;12.044;2023-03-04T03:07:40;100689.81;;;3.12;100.00
19797;BME280;10058;57.654;12.044;2023-03-04T03:10:05;100689.19;;;3.16;100.00
19797;BME280;10058;57.654;12.044;2023-03-04T03:12:31;100684.19;;;3.04;100.00
19797;BME280;10058;57.654;12.044;2023-03-04T03:14:56;100702.91;;;2.97;100.00
19797;BME280;10058;57.654;12.044;2023-03-04T03:17:21;100703.50;;;2.92;100.00
19797;BME280;10058;57.654;12.044;2023-03-04T03:19:46;100715.19;;;2.84;100.00
19797;BME280;10058;57.654;12.044;2023-03-04T03:22:12;100714.69;;;2.74;100.00
19797;BME280;10058;57.654;12.044;2023-03-04T03:24:37;100718.09;;;2.73;100.00
19797;BME280;10058;57.654;12.044;2023-03-04T03:27:02;100721.16;;;2.66;100.00
19797;BME280;10058;57.654;12.044;2023-03-04T03:29:28;100731.88;;;2.56;100.00
19797;BME280;10058;57.654;12.044;2023-03-04T03:31:53;100732.31;;;2.49;100.00
19797;BME280;10058;57.654;12.044;2023-03-04T03:34:18;100735.75;;;2.48;100.00
19797;BME280;10058;57.654;12.044;2023-03-04T03:36:43;100737.72;;;2.37;100.00
19797;BME280;10058;57.654;12.044;2023-03-04T03:39:09;100742.28;;;2.27;100.00
19797;BME280;10058;57.654;12.044;2023-03-04T03:41:34;100743.94;;;2.25;100.00
19797;BME280;10058;57.654;12.044;2023-03-04T03:43:59;100731.22;;;2.31;100.00
19797;BME280;10058;57.654;12.044;2023-03-04T03:46:25;100718.09;;;2.15;100.00
19797;BME280;10058;57.654;12.044;2023-03-04T03:48:51;100740.75;;;2.16;100.00
19797;BME280;10058;57.654;12.044;2023-03-04T03:51:16;100742.75;;;2.20;100.00
19797;BME280;10058;57.654;12.044;2023-03-04T03:53:41;100744.72;;;2.24;100.00
19797;BME280;10058;57.654;12.044;2023-03-04T03:56:07;100748.94;;;2.22;100.00
19797;BME280;10058;57.654;12.044;2023-03-04T03:58:32;100746.78;;;2.15;100.00
19797;BME280;10058;57.654;12.044;2023-03-04T04:00:57;100736.34;;;2.15;100.00
19797;BME280;10058;57.654;12.044;2023-03-04T04:03:23;100747.50;;;2.27;100.00
19797;BME280;10058;57.654;12.044;2023-03-04T04:05:48;100740.06;;;2.33;100.00
19797;BME280;10058;57.654;12.044;2023-03-04T04:08:14;100752.28;;;2.34;100.00
19797;BME280;10058;57.654;12.044;2023-03-04T04:10:41;100751.75;;;2.39;100.00
19797;BME280;10058;57.654;12.044;2023-03-04T04:13:06;100749.69;;;2.34;100.00
19797;BME280;10058;57.654;12.044;2023-03-04T04:15:32;100751.75;;;2.25;100.00
19797;BME280;10058;57.654;12.044;2023-03-04T04:17:57;100744.72;;;2.24;100.00
19797;BME280;10058;57.654;12.044;2023-03-04T04:20:22;100749.75;;;2.21;100.00
19797;BME280;10058;57.654;12.044;2023-03-04T04:22:47;100749.03;;;2.23;100.00
19797;BME280;10058;57.654;12.044;2023-03-04T04:25:13;100752.78;;;2.14;100.00
19797;BME280;10058;57.654;12.044;2023-03-04T04:27:38;100750.63;;;2.06;100.00
19797;BME280;10058;57.654;12.044;2023-03-04T04:30:04;100755.28;;;1.97;100.00
19797;BME280;10058;57.654;12.044;2023-03-04T04:32:30;100763.53;;;1.90;100.00
19797;BME280;10058;57.654;12.044;2023-03-04T04:34:55;100769.78;;;1.79;100.00
19797;BME280;10058;57.654;12.044;2023-03-04T04:37:20;100766.16;;;1.77;100.00
19797;BME280;10058;57.654;12.044;2023-03-04T04:39:45;100758.50;;;1.93;100.00
19797;BME280;10058;57.654;12.044;2023-03-04T04:42:11;100766.81;;;1.73;100.00
19797;BME280;10058;57.654;12.044;2023-03-04T04:44:36;100760.25;;;1.80;100.00
19797;BME280;10058;57.654;12.044;2023-03-04T04:47:03;100764.34;;;1.89;100.00
19797;BME280;10058;57.654;12.044;2023-03-04T04:49:30;100766.94;;;1.89;100.00
19797;BME280;10058;57.654;12.044;2023-03-04T04:51:55;100754.34;;;1.82;100.00
19797;BME280;10058;57.654;12.044;2023-03-04T04:54:21;100771.97;;;1.86;100.00
19797;BME280;10058;57.654;12.044;2023-03-04T04:56:46;100759.75;;;1.85;100.00
19797;BME280;10058;57.654;12.044;2023-03-04T04:59:11;100768.81;;;1.64;100.00
19797;BME280;10058;57.654;12.044;2023-03-04T05:01:37;100774.63;;;1.60;100.00
19797;BME280;10058;57.654;12.044;2023-03-04T05:04:02;100786.25;;;1.65;100.00
19797;BME280;10058;57.654;12.044;2023-03-04T05:06:28;100790.47;;;1.63;100.00
19797;BME280;10058;57.654;12.044;2023-03-04T05:08:53;100807.66;;;1.74;100.00
19797;BME280;10058;57.654;12.044;2023-03-04T05:11:19;100803.50;;;1.63;100.00
19797;BME280;10058;57.654;12.044;2023-03-04T05:13:45;100806.31;;;1.53;100.00
19797;BME280;10058;57.654;12.044;2023-03-04T05:16:11;100808.50;;;1.60;100.00
19797;BME280;10058;57.654;12.044;2023-03-04T05:18:37;100821.31;;;1.57;100.00
19797;BME280;10058;57.654;12.044;2023-03-04T05:21:03;100822.03;;;1.41;100.00
19797;BME280;10058;57.654;12.044;2023-03-04T05:23:32;100833.56;;;1.45;100.00
19797;BME280;10058;57.654;12.044;2023-03-04T05:25:58;100819.75;;;1.46;100.00
19797;BME280;10058;57.654;12.044;2023-03-04T05:28:23;100829.06;;;1.42;100.00
19797;BME280;10058;57.654;12.044;2023-03-04T05:30:48;100840.19;;;1.39;100.00
19797;BME280;10058;57.654;12.044;2023-03-04T05:33:15;100841.06;;;1.40;100.00
19797;BME280;10058;57.654;12.044;2023-03-04T05:35:41;100844.81;;;1.30;100.00
19797;BME280;10058;57.654;12.044;2023-03-04T05:38:10;100846.59;;;1.31;100.00
19797;BME280;10058;57.654;12.044;2023-03-04T05:40:35;100851.22;;;1.35;100.00
19797;BME280;10058;57.654;12.044;2023-03-04T05:43:01;100854.03;;;1.38;100.00
19797;BME280;10058;57.654;12.044;2023-03-04T05:45:26;100861.44;;;1.32;100.00
19797;BME280;10058;57.654;12.044;2023-03-04T05:47:52;100855.81;;;1.13;100.00
19797;BME280;10058;57.654;12.044;2023-03-04T05:50:18;100864.84;;;1.18;100.00
19797;BME280;10058;57.654;12.044;2023-03-04T05:52:44;100874.94;;;1.27;100.00
19797;BME280;10058;57.654;12.044;2023-03-04T05:55:09;100872.81;;;1.21;100.00
19797;BME280;10058;57.654;12.044;2023-03-04T05:57:35;100873.81;;;1.23;100.00
19797;BME280;10058;57.654;12.044;2023-03-04T06:00:01;100868.34;;;1.19;100.00
19797;BME280;10058;57.654;12.044;2023-03-04T06:02:26;100867.53;;;1.20;100.00
19797;BME280;10058;57.654;12.044;2023-03-04T06:04:51;100865.53;;;1.16;100.00
19797;BME280;10058;57.654;12.044;2023-03-04T06:07:17;100870.03;;;1.31;100.00
19797;BME280;10058;57.654;12.044;2023-03-04T06:09:42;100874.63;;;1.09;100.00
19797;BME280;10058;57.654;12.044;2023-03-04T06:12:12;100871.31;;;1.25;100.00
19797;BME280;10058;57.654;12.044;2023-03-04T06:14:37;100871.22;;;1.10;100.00
19797;BME280;10058;57.654;12.044;2023-03-04T06:17:03;100884.94;;;1.08;100.00
19797;BME280;10058;57.654;12.044;2023-03-04T06:19:28;100893.63;;;1.08;100.00
19797;BME280;10058;57.654;12.044;2023-03-04T06:21:54;100886.81;;;0.97;100.00
19797;BME280;10058;57.654;12.044;2023-03-04T06:24:19;100903.84;;;1.05;100.00
19797;BME280;10058;57.654;12.044;2023-03-04T06:26:45;100907.06;;;1.01;100.00
19797;BME280;10058;57.654;12.044;2023-03-04T06:29:10;100901.97;;;1.02;100.00
19797;BME280;10058;57.654;12.044;2023-03-04T06:31:35;100909.03;;;1.05;100.00
19797;BME280;10058;57.654;12.044;2023-03-04T06:34:01;100918.50;;;1.16;100.00
19797;BME280;10058;57.654;12.044;2023-03-04T06:36:26;100915.88;;;1.16;100.00
19797;BME280;10058;57.654;12.044;2023-03-04T06:38:51;100918.50;;;1.16;100.00
19797;BME280;10058;57.654;12.044;2023-03-04T06:41:17;100918.31;;;1.39;100.00
19797;BME280;10058;57.654;12.044;2023-03-04T06:43:42;100930.94;;;1.20;100.00
19797;BME280;10058;57.654;12.044;2023-03-04T06:46:08;100930.72;;;1.44;100.00
19797;BME280;10058;57.654;12.044;2023-03-04T06:48:33;100934.94;;;1.42;100.00
19797;BME280;10058;57.654;12.044;2023-03-04T06:51:05;100934.56;;;1.49;100.00
19797;BME280;10058;57.654;12.044;2023-03-04T06:53:31;100940.34;;;1.45;100.00
19797;BME280;10058;57.654;12.044;2023-03-04T06:55:56;100940.34;;;1.58;100.00
19797;BME280;10058;57.654;12.044;2023-03-04T06:58:21;100944.75;;;1.46;100.00
19797;BME280;10058;57.654;12.044;2023-03-04T07:00:46;100942.94;;;1.45;100.00
19797;BME280;10058;57.654;12.044;2023-03-04T07:03:12;100946.94;;;1.39;100.00
19797;BME280;10058;57.654;12.044;2023-03-04T07:05:37;100959.69;;;1.48;100.00
19797;BME280;10058;57.654;12.044;2023-03-04T07:08:02;100960.19;;;1.43;100.00
19797;BME280;10058;57.654;12.044;2023-03-04T07:10:28;100957.69;;;1.44;100.00
19797;BME280;10058;57.654;12.044;2023-03-04T07:12:53;100966.03;;;1.52;100.00
19797;BME280;10058;57.654;12.044;2023-03-04T07:15:18;100965.22;;;1.53;100.00
19797;BME280;10058;57.654;12.044;2023-03-04T07:17:44;100963.81;;;1.71;100.00
19797;BME280;10058;57.654;12.044;2023-03-04T07:20:09;100974.63;;;1.64;100.00
19797;BME280;10058;57.654;12.044;2023-03-04T07:22:35;100956.09;;;1.59;100.00
19797;BME280;10058;57.654;12.044;2023-03-04T07:25:00;100968.25;;;1.72;100.00
19797;BME280;10058;57.654;12.044;2023-03-04T07:27:26;100977.66;;;1.70;100.00
19797;BME280;10058;57.654;12.044;2023-03-04T07:29:51;100969.81;;;1.83;100.00
19797;BME280;10058;57.654;12.044;2023-03-04T07:32:16;100971.91;;;1.75;100.00
19797;BME280;10058;57.654;12.044;2023-03-04T07:34:41;100975.44;;;1.63;100.00
19797;BME280;10058;57.654;12.044;2023-03-04T07:37:07;100970.44;;;1.66;100.00
19797;BME280;10058;57.654;12.044;2023-03-04T07:39:32;100973.25;;;1.56;100.00
19797;BME280;10058;57.654;12.044;2023-03-04T07:41:57;100969.63;;;1.67;100.00
19797;BME280;10058;57.654;12.044;2023-03-04T07:44:22;100961.59;;;1.64;100.00
19797;BME280;10058;57.654;12.044;2023-03-04T07:46:48;100957.88;;;1.73;100.00
19797;BME280;10058;57.654;12.044;2023-03-04T07:49:13;100959.59;;;1.86;98.91
19797;BME280;10058;57.654;12.044;2023-03-04T07:51:39;100944.47;;;1.81;96.94
19797;BME280;10058;57.654;12.044;2023-03-04T07:54:04;100991.47;;;1.82;95.83
19797;BME280;10058;57.654;12.044;2023-03-04T07:56:31;100947.34;;;1.98;92.72
19797;BME280;10058;57.654;12.044;2023-03-04T07:58:57;100959.19;;;2.06;92.17
19797;BME280;10058;57.654;12.044;2023-03-04T08:01:31;100957.19;;;2.02;92.35
19797;BME280;10058;57.654;12.044;2023-03-04T08:03:56;100977.81;;;2.13;91.57
19797;BME280;10058;57.654;12.044;2023-03-04T08:06:22;100981.03;;;2.22;92.62
19797;BME280;10058;57.654;12.044;2023-03-04T08:08:49;100992.06;;;2.18;89.13
19797;BME280;10058;57.654;12.044;2023-03-04T08:11:18;100986.25;;;2.22;85.27
19797;BME280;10058;57.654;12.044;2023-03-04T08:13:43;100988.75;;;2.20;85.47
19797;BME280;10058;57.654;12.044;2023-03-04T08:16:14;100994.03;;;2.35;87.45
19797;BME280;10058;57.654;12.044;2023-03-04T08:18:41;101005.78;;;2.41;85.96
19797;BME280;10058;57.654;12.044;2023-03-04T08:21:09;101005.25;;;2.47;86.78
19797;BME280;10058;57.654;12.044;2023-03-04T08:23:34;100973.13;;;2.48;86.97
19797;BME280;10058;57.654;12.044;2023-03-04T08:26:07;101002.78;;;2.63;86.80
19797;BME280;10058;57.654;12.044;2023-03-04T08:28:33;101000.16;;;2.76;91.02
19797;BME280;10058;57.654;12.044;2023-03-04T08:30:58;101007.16;;;2.77;91.71
19797;BME280;10058;57.654;12.044;2023-03-04T08:33:24;101002.84;;;2.50;86.40
19797;BME280;10058;57.654;12.044;2023-03-04T08:35:49;101022.81;;;2.77;90.53
19797;BME280;10058;57.654;12.044;2023-03-04T08:38:14;101011.66;;;2.80;89.71
19797;BME280;10058;57.654;12.044;2023-03-04T08:40:39;101007.19;;;2.64;87.11
19797;BME280;10058;57.654;12.044;2023-03-04T08:43:05;101014.22;;;2.65;89.92
19797;BME280;10058;57.654;12.044;2023-03-04T08:45:30;101006.19;;;2.62;89.82
19797;BME280;10058;57.654;12.044;2023-03-04T08:47:56;101009.25;;;2.55;86.68
19797;BME280;10058;57.654;12.044;2023-03-04T08:50:21;101025.75;;;2.41;85.70
19797;BME280;10058;57.654;12.044;2023-03-04T08:52:47;101019.28;;;2.49;84.43
19797;BME280;10058;57.654;12.044;2023-03-04T08:55:12;101018.84;;;2.69;87.18
19797;BME280;10058;57.654;12.044;2023-03-04T08:57:37;101020.78;;;2.87;86.56
19797;BME280;10058;57.654;12.044;2023-03-04T09:00:03;100994.34;;;2.67;86.77
19797;BME280;10058;57.654;12.044;2023-03-04T09:02:28;101033.09;;;2.74;88.04
19797;BME280;10058;57.654;12.044;2023-03-04T09:04:54;101020.84;;;2.73;86.82
19797;BME280;10058;57.654;12.044;2023-03-04T09:07:19;101027.22;;;2.92;88.50
19797;BME280;10058;57.654;12.044;2023-03-04T09:09:44;101027.56;;;2.98;84.39
19797;BME280;10058;57.654;12.044;2023-03-04T09:12:10;101017.50;;;3.04;85.73
19797;BME280;10058;57.654;12.044;2023-03-04T09:14:35;101030.06;;;3.24;86.29
19797;BME280;10058;57.654;12.044;2023-03-04T09:17:02;101028.69;;;3.16;86.73
19797;BME280;10058;57.654;12.044;2023-03-04T09:19:28;101039.81;;;2.99;82.72
19797;BME280;10058;57.654;12.044;2023-03-04T09:21:53;101032.28;;;3.03;81.20
19797;BME280;10058;57.654;12.044;2023-03-04T09:24:24;101032.50;;;3.21;84.14
19797;BME280;10058;57.654;12.044;2023-03-04T09:26:50;101018.22;;;3.01;79.91
19797;BME280;10058;57.654;12.044;2023-03-04T09:29:16;101016.31;;;3.41;85.23
19797;BME280;10058;57.654;12.044;2023-03-04T09:31:41;101007.19;;;3.20;83.02
19797;BME280;10058;57.654;12.044;2023-03-04T09:34:07;101017.66;;;3.49;82.35
19797;BME280;10058;57.654;12.044;2023-03-04T09:36:32;101029.28;;;3.40;80.97
19797;BME280;10058;57.654;12.044;2023-03-04T09:38:59;101017.75;;;3.36;80.34
19797;BME280;10058;57.654;12.044;2023-03-04T09:41:33;101018.03;;;3.56;80.59
19797;BME280;10058;57.654;12.044;2023-03-04T09:44:06;101011.97;;;3.27;78.19
19797;BME280;10058;57.654;12.044;2023-03-04T09:46:38;101000.88;;;3.31;78.75
19797;BME280;10058;57.654;12.044;2023-03-04T09:49:04;101007.16;;;3.05;78.18
19797;BME280;10058;57.654;12.044;2023-03-04T09:51:39;101011.91;;;3.40;79.50
19797;BME280;10058;57.654;12.044;2023-03-04T09:57:42;101010.59;;;3.19;76.11
19797;BME280;10058;57.654;12.044;2023-03-04T10:03:04;101006.19;;;3.18;76.77
19797;BME280;10058;57.654;12.044;2023-03-04T10:05:33;101006.91;;;3.30;75.33
19797;BME280;10058;57.654;12.044;2023-03-04T10:08:33;100994.78;;;3.45;76.00
19797;BME280;10058;57.654;12.044;2023-03-04T10:11:02;100993.00;;;3.44;76.83
19797;BME280;10058;57.654;12.044;2023-03-04T10:13:35;100995.22;;;3.68;77.43
19797;BME280;10058;57.654;12.044;2023-03-04T10:16:04;100953.06;;;3.18;74.34
19797;BME280;10058;57.654;12.044;2023-03-04T10:18:36;100993.72;;;3.57;73.96
19797;BME280;10058;57.654;12.044;2023-03-04T10:21:21;100982.78;;;3.34;73.05
19797;BME280;10058;57.654;12.044;2023-03-04T10:23:48;100996.84;;;3.36;76.11
19797;BME280;10058;57.654;12.044;2023-03-04T10:26:16;101002.97;;;3.37;73.68
19797;BME280;10058;57.654;12.044;2023-03-04T10:28:44;101000.19;;;3.48;75.02
19797;BME280;10058;57.654;12.044;2023-03-04T10:31:20;101000.44;;;3.38;72.71
19797;BME280;10058;57.654;12.044;2023-03-04T10:33:46;100997.59;;;3.63;75.76
19797;BME280;10058;57.654;12.044;2023-03-04T10:39:01;100991.63;;;3.66;74.51
19797;BME280;10058;57.654;12.044;2023-03-04T10:41:29;100990.00;;;3.68;72.53
19797;BME280;10058;57.654;12.044;2023-03-04T10:46:23;100986.22;;;3.63;71.98
19797;BME280;10058;57.654;12.044;2023-03-04T10:48:49;100974.06;;;3.78;74.43
19797;BME280;10058;57.654;12.044;2023-03-04T10:51:19;100977.72;;;3.96;77.29
19797;BME280;10058;57.654;12.044;2023-03-04T10:53:46;100969.75;;;4.09;74.78
19797;BME280;10058;57.654;12.044;2023-03-04T10:56:39;100983.03;;;4.29;74.36
19797;BME280;10058;57.654;12.044;2023-03-04T11:02:23;100978.03;;;4.02;73.68
19797;BME280;10058;57.654;12.044;2023-03-04T11:07:54;100978.47;;;3.79;72.38
19797;BME280;10058;57.654;12.044;2023-03-04T11:10:22;100962.19;;;3.99;75.85
19797;BME280;10058;57.654;12.044;2023-03-04T11:12:58;100978.28;;;3.76;70.01
19797;BME280;10058;57.654;12.044;2023-03-04T11:15:25;100954.47;;;3.86;71.02
19797;BME280;10058;57.654;12.044;2023-03-04T11:18:08;100969.97;;;3.98;73.43
19797;BME280;10058;57.654;12.044;2023-03-04T11:20:36;100951.56;;;3.96;72.87
19797;BME280;10058;57.654;12.044;2023-03-04T11:23:10;100958.25;;;3.91;72.43
19797;BME280;10058;57.654;12.044;2023-03-04T11:25:40;100962.19;;;3.99;72.15
19797;BME280;10058;57.654;12.044;2023-03-04T11:28:11;100969.38;;;4.03;72.87
19797;BME280;10058;57.654;12.044;2023-03-04T11:30:47;100955.91;;;3.96;71.73
19797;BME280;10058;57.654;12.044;2023-03-04T11:33:28;100959.28;;;4.09;70.90
19797;BME280;10058;57.654;12.044;2023-03-04T11:36:25;100955.25;;;4.31;71.89
19797;BME280;10058;57.654;12.044;2023-03-04T11:38:54;100954.00;;;4.24;70.83
19797;BME280;10058;57.654;12.044;2023-03-04T11:41:28;100945.22;;;4.07;70.61
19797;BME280;10058;57.654;12.044;2023-03-04T11:43:57;100941.63;;;4.05;71.42
19797;BME280;10058;57.654;12.044;2023-03-04T11:55:01;100934.81;;;4.40;71.71
19797;BME280;10058;57.654;12.044;2023-03-04T12:00:29;100931.31;;;4.08;68.19
19797;BME280;10058;57.654;12.044;2023-03-04T12:11:05;100935.91;;;4.12;69.20
19797;BME280;10058;57.654;12.044;2023-03-04T12:13:58;100929.72;;;4.27;70.18
19797;BME280;10058;57.654;12.044;2023-03-04T12:19:25;100927.09;;;4.10;68.88
19797;BME280;10058;57.654;12.044;2023-03-04T12:22:05;100918.09;;;4.22;66.15
19797;BME280;10058;57.654;12.044;2023-03-04T12:30:12;100927.34;;;4.15;66.39
19797;BME280;10058;57.654;12.044;2023-03-04T12:33:03;100911.78;;;4.18;66.00
19797;BME280;10058;57.654;12.044;2023-03-04T12:35:55;100909.78;;;4.29;66.71
19797;BME280;10058;57.654;12.044;2023-03-04T12:44:15;100881.50;;;4.54;67.04
19797;BME280;10058;57.654;12.044;2023-03-04T12:55:03;100888.03;;;4.78;69.00
19797;BME280;10058;57.654;12.044;2023-03-04T12:57:29;100904.56;;;4.61;67.22
19797;BME280;10058;57.654;12.044;2023-03-04T13:02:59;100887.41;;;4.50;67.06
19797;BME280;10058;57.654;12.044;2023-03-04T13:08:53;100883.13;;;4.52;68.75
19797;BME280;10058;57.654;12.044;2023-03-04T13:14:02;100866.75;;;4.72;68.92
19797;BME280;10058;57.654;12.044;2023-03-04T13:16:40;100863.84;;;4.66;67.89
19797;BME280;10058;57.654;12.044;2023-03-04T13:22:41;100872.66;;;4.52;65.08
19797;BME280;10058;57.654;12.044;2023-03-04T13:25:46;100872.59;;;4.67;67.81
19797;BME280;10058;57.654;12.044;2023-03-04T13:28:17;100860.88;;;4.60;65.73
19797;BME280;10058;57.654;12.044;2023-03-04T13:43:53;100851.50;;;4.31;70.31
19797;BME280;10058;57.654;12.044;2023-03-04T13:58:51;100835.09;;;4.51;79.26
19797;BME280;10058;57.654;12.044;2023-03-04T14:01:29;100832.75;;;4.56;77.63
19797;BME280;10058;57.654;12.044;2023-03-04T14:03:57;100832.50;;;4.51;78.44
19797;BME280;10058;57.654;12.044;2023-03-04T14:06:26;100829.31;;;4.57;79.97
19797;BME280;10058;57.654;12.044;2023-03-04T14:08:53;100834.22;;;4.51;79.57
19797;BME280;10058;57.654;12.044;2023-03-04T14:11:33;100788.38;;;4.25;79.65
19797;BME280;10058;57.654;12.044;2023-03-04T14:14:03;100831.09;;;4.58;78.97
19797;BME280;10058;57.654;12.044;2023-03-04T14:16:32;100829.16;;;4.38;77.06
19797;BME280;10058;57.654;12.044;2023-03-04T14:19:04;100813.44;;;4.54;79.15
19797;BME280;10058;57.654;12.044;2023-03-04T14:21:31;100833.41;;;4.36;77.10
19797;BME280;10058;57.654;12.044;2023-03-04T14:24:03;100816.56;;;4.47;77.58
19797;BME280;10058;57.654;12.044;2023-03-04T14:26:28;100814.44;;;4.07;77.18
19797;BME280;10058;57.654;12.044;2023-03-04T14:28:55;100817.50;;;3.84;76.67